sensor_id;sensor_type;location;lat;lon;timestamp;P1;durP1;ratioP1;P2;durP2;ratioP2
70899;SDS011;67902;52.154;5.430;2023-04-24T00:01:09;5.40;;;1.45;;
70899;SDS011;67902;52.154;5.430;2023-04-24T00:03:36;5.35;;;1.60;;
70899;SDS011;67902;52.154;5.430;2023-04-24T00:06:03;2.33;;;0.82;;
70899;SDS011;67902;52.154;5.430;2023-04-24T00:08:30;3.90;;;1.15;;
70899;SDS011;67902;52.154;5.430;2023-04-24T00:10:56;4.03;;;1.20;;
70899;SDS011;67902;52.154;5.430;2023-04-24T00:13:24;3.85;;;1.20;;
70899;SDS011;67902;52.154;5.430;2023-04-24T00:15:50;3.45;;;1.02;;
70899;SDS011;67902;52.154;5.430;2023-04-24T00:18:17;4.63;;;1.40;;
70899;SDS011;67902;52.154;5.430;2023-04-24T00:20:43;3.13;;;1.10;;
70899;SDS011;67902;52.154;5.430;2023-04-24T00:23:10;2.75;;;1.00;;
70899;SDS011;67902;52.154;5.430;2023-04-24T00:25:36;5.03;;;1.02;;
70899;SDS011;67902;52.154;5.430;2023-04-24T00:28:03;3.75;;;1.27;;
70899;SDS011;67902;52.154;5.430;2023-04-24T00:30:29;4.63;;;1.33;;
70899;SDS011;67902;52.154;5.430;2023-04-24T00:32:56;4.88;;;1.38;;
70899;SDS011;67902;52.154;5.430;2023-04-24T00:35:23;4.40;;;1.60;;
70899;SDS011;67902;52.154;5.430;2023-04-24T00:37:50;5.72;;;1.67;;
70899;SDS011;67902;52.154;5.430;2023-04-24T00:40:16;4.53;;;1.45;;
70899;SDS011;67902;52.154;5.430;2023-04-24T00:42:43;4.63;;;1.70;;
70899;SDS011;67902;52.154;5.430;2023-04-24T00:45:09;3.72;;;1.20;;
70899;SDS011;67902;52.154;5.430;2023-04-24T00:47:36;4.75;;;1.52;;
70899;SDS011;67902;52.154;5.430;2023-04-24T00:50:03;4.53;;;1.70;;
70899;SDS011;67902;52.154;5.430;2023-04-24T00:54:59;5.50;;;1.65;;
70899;SDS011;67902;52.154;5.430;2023-04-24T00:57:26;4.45;;;1.45;;
70899;SDS011;67902;52.154;5.430;2023-04-24T00:59:53;4.78;;;1.88;;
70899;SDS011;67902;52.154;5.430;2023-04-24T01:02:19;4.35;;;1.70;;
70899;SDS011;67902;52.154;5.430;2023-04-24T01:04:49;5.35;;;2.03;;
70899;SDS011;67902;52.154;5.430;2023-04-24T01:07:18;5.22;;;1.90;;
70899;SDS011;67902;52.154;5.430;2023-04-24T01:09:47;5.10;;;1.92;;
70899;SDS011;67902;52.154;5.430;2023-04-24T01:12:15;6.32;;;2.30;;
70899;SDS011;67902;52.154;5.430;2023-04-24T01:14:42;7.00;;;2.17;;
70899;SDS011;67902;52.154;5.430;2023-04-24T01:17:08;6.45;;;2.22;;
70899;SDS011;67902;52.154;5.430;2023-04-24T01:19:35;7.03;;;2.60;;
70899;SDS011;67902;52.154;5.430;2023-04-24T01:22:02;9.13;;;2.38;;
70899;SDS011;67902;52.154;5.430;2023-04-24T01:24:28;7.32;;;2.70;;
70899;SDS011;67902;52.154;5.430;2023-04-24T01:26:55;6.20;;;2.53;;
70899;SDS011;67902;52.154;5.430;2023-04-24T01:29:22;8.15;;;3.38;;
70899;SDS011;67902;52.154;5.430;2023-04-24T01:31:49;7.55;;;2.95;;
70899;SDS011;67902;52.154;5.430;2023-04-24T01:34:16;8.35;;;2.95;;
70899;SDS011;67902;52.154;5.430;2023-04-24T01:36:43;7.93;;;3.55;;
70899;SDS011;67902;52.154;5.430;2023-04-24T01:39:12;7.35;;;3.47;;
70899;SDS011;67902;52.154;5.430;2023-04-24T01:41:38;9.25;;;3.40;;
70899;SDS011;67902;52.154;5.430;2023-04-24T01:44:05;8.25;;;2.90;;
70899;SDS011;67902;52.154;5.430;2023-04-24T01:46:31;10.30;;;3.70;;
70899;SDS011;67902;52.154;5.430;2023-04-24T01:49:00;6.93;;;2.85;;
70899;SDS011;67902;52.154;5.430;2023-04-24T01:51:28;6.45;;;2.75;;
70899;SDS011;67902;52.154;5.430;2023-04-24T01:53:54;8.00;;;2.83;;
70899;SDS011;67902;52.154;5.430;2023-04-24T01:56:21;7.38;;;3.47;;
70899;SDS011;67902;52.154;5.430;2023-04-24T01:58:49;7.32;;;3.22;;
70899;SDS011;67902;52.154;5.430;2023-04-24T02:01:18;11.43;;;3.65;;
70899;SDS011;67902;52.154;5.430;2023-04-24T02:03:46;6.80;;;3.13;;
70899;SDS011;67902;52.154;5.430;2023-04-24T02:06:13;8.93;;;3.40;;
70899;SDS011;67902;52.154;5.430;2023-04-24T02:08:39;9.60;;;3.60;;
70899;SDS011;67902;52.154;5.430;2023-04-24T02:11:05;9.32;;;3.88;;
70899;SDS011;67902;52.154;5.430;2023-04-24T02:13:32;7.63;;;3.40;;
70899;SDS011;67902;52.154;5.430;2023-04-24T02:15:58;8.35;;;3.38;;
70899;SDS011;67902;52.154;5.430;2023-04-24T02:18:25;8.35;;;3.30;;
70899;SDS011;67902;52.154;5.430;2023-04-24T02:20:51;9.15;;;4.03;;
70899;SDS011;67902;52.154;5.430;2023-04-24T02:23:17;8.63;;;3.85;;
70899;SDS011;67902;52.154;5.430;2023-04-24T02:25:44;7.95;;;3.55;;
70899;SDS011;67902;52.154;5.430;2023-04-24T02:28:10;8.68;;;3.53;;
70899;SDS011;67902;52.154;5.430;2023-04-24T02:30:37;7.60;;;3.70;;
70899;SDS011;67902;52.154;5.430;2023-04-24T02:33:03;7.40;;;3.30;;
70899;SDS011;67902;52.154;5.430;2023-04-24T02:35:29;7.78;;;3.17;;
70899;SDS011;67902;52.154;5.430;2023-04-24T02:37:56;7.60;;;2.92;;
70899;SDS011;67902;52.154;5.430;2023-04-24T02:40:22;8.00;;;3.20;;
70899;SDS011;67902;52.154;5.430;2023-04-24T02:42:49;7.57;;;3.15;;
70899;SDS011;67902;52.154;5.430;2023-04-24T02:45:15;7.30;;;3.10;;
70899;SDS011;67902;52.154;5.430;2023-04-24T02:47:42;6.70;;;2.92;;
70899;SDS011;67902;52.154;5.430;2023-04-24T02:50:08;6.65;;;2.67;;
70899;SDS011;67902;52.154;5.430;2023-04-24T02:52:35;10.30;;;2.75;;
70899;SDS011;67902;52.154;5.430;2023-04-24T02:55:01;6.82;;;2.90;;
70899;SDS011;67902;52.154;5.430;2023-04-24T02:57:28;7.45;;;3.25;;
70899;SDS011;67902;52.154;5.430;2023-04-24T02:59:54;7.75;;;3.08;;
70899;SDS011;67902;52.154;5.430;2023-04-24T03:02:21;8.15;;;3.38;;
70899;SDS011;67902;52.154;5.430;2023-04-24T03:04:47;7.75;;;3.17;;
70899;SDS011;67902;52.154;5.430;2023-04-24T03:07:14;7.93;;;3.25;;
70899;SDS011;67902;52.154;5.430;2023-04-24T03:09:41;8.55;;;3.67;;
70899;SDS011;67902;52.154;5.430;2023-04-24T03:12:08;9.45;;;3.30;;
70899;SDS011;67902;52.154;5.430;2023-04-24T03:14:34;9.55;;;3.10;;
70899;SDS011;67902;52.154;5.430;2023-04-24T03:17:00;7.60;;;3.15;;
70899;SDS011;67902;52.154;5.430;2023-04-24T03:19:27;8.77;;;3.63;;
70899;SDS011;67902;52.154;5.430;2023-04-24T03:21:53;7.75;;;3.13;;
70899;SDS011;67902;52.154;5.430;2023-04-24T03:24:20;7.60;;;2.83;;
70899;SDS011;67902;52.154;5.430;2023-04-24T03:26:46;9.57;;;3.50;;
70899;SDS011;67902;52.154;5.430;2023-04-24T03:29:13;7.80;;;3.28;;
70899;SDS011;67902;52.154;5.430;2023-04-24T03:31:39;8.32;;;3.28;;
70899;SDS011;67902;52.154;5.430;2023-04-24T03:34:06;7.22;;;2.50;;
70899;SDS011;67902;52.154;5.430;2023-04-24T03:36:32;6.75;;;1.90;;
70899;SDS011;67902;52.154;5.430;2023-04-24T03:38:58;5.70;;;2.08;;
70899;SDS011;67902;52.154;5.430;2023-04-24T03:41:25;6.15;;;1.60;;
70899;SDS011;67902;52.154;5.430;2023-04-24T03:43:51;5.68;;;1.92;;
70899;SDS011;67902;52.154;5.430;2023-04-24T03:46:18;6.57;;;2.05;;
70899;SDS011;67902;52.154;5.430;2023-04-24T03:48:44;6.38;;;1.83;;
70899;SDS011;67902;52.154;5.430;2023-04-24T03:51:10;5.13;;;1.83;;
70899;SDS011;67902;52.154;5.430;2023-04-24T03:53:37;4.43;;;1.58;;
70899;SDS011;67902;52.154;5.430;2023-04-24T03:56:03;4.68;;;1.60;;
70899;SDS011;67902;52.154;5.430;2023-04-24T03:58:30;5.32;;;1.65;;
70899;SDS011;67902;52.154;5.430;2023-04-24T04:00:56;6.28;;;2.28;;
70899;SDS011;67902;52.154;5.430;2023-04-24T04:03:24;6.47;;;2.00;;
70899;SDS011;67902;52.154;5.430;2023-04-24T04:05:51;6.68;;;2.15;;
70899;SDS011;67902;52.154;5.430;2023-04-24T04:08:19;6.38;;;2.53;;
70899;SDS011;67902;52.154;5.430;2023-04-24T04:10:45;5.90;;;2.28;;
70899;SDS011;67902;52.154;5.430;2023-04-24T04:13:12;6.65;;;2.30;;
70899;SDS011;67902;52.154;5.430;2023-04-24T04:15:38;8.45;;;2.22;;
70899;SDS011;67902;52.154;5.430;2023-04-24T04:18:05;6.07;;;2.10;;
70899;SDS011;67902;52.154;5.430;2023-04-24T04:20:31;5.85;;;2.15;;
70899;SDS011;67902;52.154;5.430;2023-04-24T04:22:58;5.22;;;1.60;;
70899;SDS011;67902;52.154;5.430;2023-04-24T04:25:24;4.43;;;1.40;;
70899;SDS011;67902;52.154;5.430;2023-04-24T04:27:50;3.92;;;1.45;;
70899;SDS011;67902;52.154;5.430;2023-04-24T04:30:18;4.53;;;1.40;;
70899;SDS011;67902;52.154;5.430;2023-04-24T04:32:44;4.97;;;1.67;;
70899;SDS011;67902;52.154;5.430;2023-04-24T04:35:11;5.32;;;1.65;;
70899;SDS011;67902;52.154;5.430;2023-04-24T04:37:37;5.03;;;1.60;;
70899;SDS011;67902;52.154;5.430;2023-04-24T04:40:04;5.20;;;1.60;;
70899;SDS011;67902;52.154;5.430;2023-04-24T04:42:37;5.75;;;1.70;;
70899;SDS011;67902;52.154;5.430;2023-04-24T04:45:07;6.25;;;1.63;;
70899;SDS011;67902;52.154;5.430;2023-04-24T04:47:37;5.38;;;1.80;;
70899;SDS011;67902;52.154;5.430;2023-04-24T04:50:04;6.10;;;1.92;;
70899;SDS011;67902;52.154;5.430;2023-04-24T04:52:31;6.10;;;1.95;;
70899;SDS011;67902;52.154;5.430;2023-04-24T04:54:57;7.30;;;2.22;;
70899;SDS011;67902;52.154;5.430;2023-04-24T04:57:24;6.10;;;2.20;;
70899;SDS011;67902;52.154;5.430;2023-04-24T04:59:50;7.53;;;2.50;;
70899;SDS011;67902;52.154;5.430;2023-04-24T05:02:17;6.60;;;2.33;;
70899;SDS011;67902;52.154;5.430;2023-04-24T05:04:44;6.93;;;2.72;;
70899;SDS011;67902;52.154;5.430;2023-04-24T05:07:11;7.60;;;3.05;;
70899;SDS011;67902;52.154;5.430;2023-04-24T05:09:38;8.75;;;3.13;;
70899;SDS011;67902;52.154;5.430;2023-04-24T05:12:04;9.52;;;3.35;;
70899;SDS011;67902;52.154;5.430;2023-04-24T05:14:31;9.48;;;3.47;;
70899;SDS011;67902;52.154;5.430;2023-04-24T05:16:57;8.75;;;3.30;;
70899;SDS011;67902;52.154;5.430;2023-04-24T05:19:23;8.73;;;3.53;;
70899;SDS011;67902;52.154;5.430;2023-04-24T05:21:50;10.20;;;3.55;;
70899;SDS011;67902;52.154;5.430;2023-04-24T05:24:16;10.00;;;3.58;;
70899;SDS011;67902;52.154;5.430;2023-04-24T05:26:43;10.55;;;4.35;;
70899;SDS011;67902;52.154;5.430;2023-04-24T05:29:09;10.70;;;3.75;;
70899;SDS011;67902;52.154;5.430;2023-04-24T05:31:35;12.07;;;3.85;;
70899;SDS011;67902;52.154;5.430;2023-04-24T05:34:02;9.27;;;3.83;;
70899;SDS011;67902;52.154;5.430;2023-04-24T05:36:28;9.77;;;3.65;;
70899;SDS011;67902;52.154;5.430;2023-04-24T05:38:55;12.20;;;3.63;;
70899;SDS011;67902;52.154;5.430;2023-04-24T05:41:21;9.48;;;3.42;;
70899;SDS011;67902;52.154;5.430;2023-04-24T05:43:48;10.43;;;3.40;;
70899;SDS011;67902;52.154;5.430;2023-04-24T05:46:15;9.88;;;3.47;;
70899;SDS011;67902;52.154;5.430;2023-04-24T05:48:41;8.55;;;3.20;;
70899;SDS011;67902;52.154;5.430;2023-04-24T05:51:08;9.80;;;2.92;;
70899;SDS011;67902;52.154;5.430;2023-04-24T05:53:35;8.02;;;3.10;;
70899;SDS011;67902;52.154;5.430;2023-04-24T05:56:01;6.68;;;2.53;;
70899;SDS011;67902;52.154;5.430;2023-04-24T05:58:28;7.13;;;2.50;;
70899;SDS011;67902;52.154;5.430;2023-04-24T06:00:54;7.25;;;2.40;;
70899;SDS011;67902;52.154;5.430;2023-04-24T06:03:21;7.05;;;2.00;;
70899;SDS011;67902;52.154;5.430;2023-04-24T06:05:49;5.95;;;1.95;;
70899;SDS011;67902;52.154;5.430;2023-04-24T06:08:17;5.32;;;1.85;;
70899;SDS011;67902;52.154;5.430;2023-04-24T06:10:43;5.38;;;1.58;;
70899;SDS011;67902;52.154;5.430;2023-04-24T06:13:11;4.60;;;1.40;;
70899;SDS011;67902;52.154;5.430;2023-04-24T06:15:38;4.15;;;1.30;;
70899;SDS011;67902;52.154;5.430;2023-04-24T06:18:04;3.55;;;1.02;;
70899;SDS011;67902;52.154;5.430;2023-04-24T06:20:30;4.68;;;1.05;;
70899;SDS011;67902;52.154;5.430;2023-04-24T06:22:57;5.80;;;1.20;;
70899;SDS011;67902;52.154;5.430;2023-04-24T06:25:26;4.30;;;1.17;;
70899;SDS011;67902;52.154;5.430;2023-04-24T06:27:54;4.03;;;1.00;;
70899;SDS011;67902;52.154;5.430;2023-04-24T06:30:21;4.10;;;1.02;;
70899;SDS011;67902;52.154;5.430;2023-04-24T06:32:47;4.05;;;1.05;;
70899;SDS011;67902;52.154;5.430;2023-04-24T06:35:14;4.18;;;0.90;;
70899;SDS011;67902;52.154;5.430;2023-04-24T06:37:41;3.83;;;1.15;;
70899;SDS011;67902;52.154;5.430;2023-04-24T06:42:35;7.78;;;2.03;;
70899;SDS011;67902;52.154;5.430;2023-04-24T06:45:02;7.60;;;2.60;;
70899;SDS011;67902;52.154;5.430;2023-04-24T06:47:29;12.18;;;4.35;;
70899;SDS011;67902;52.154;5.430;2023-04-24T06:49:56;11.45;;;4.50;;
70899;SDS011;67902;52.154;5.430;2023-04-24T06:52:23;11.05;;;4.47;;
70899;SDS011;67902;52.154;5.430;2023-04-24T06:54:50;13.77;;;5.50;;
70899;SDS011;67902;52.154;5.430;2023-04-24T06:57:17;13.80;;;5.32;;
70899;SDS011;67902;52.154;5.430;2023-04-24T06:59:43;16.75;;;5.90;;
70899;SDS011;67902;52.154;5.430;2023-04-24T07:02:10;17.65;;;5.65;;
70899;SDS011;67902;52.154;5.430;2023-04-24T07:04:37;12.98;;;6.25;;
70899;SDS011;67902;52.154;5.430;2023-04-24T07:07:03;14.57;;;5.85;;
70899;SDS011;67902;52.154;5.430;2023-04-24T07:09:31;15.32;;;5.70;;
70899;SDS011;67902;52.154;5.430;2023-04-24T07:11:58;14.68;;;6.20;;
70899;SDS011;67902;52.154;5.430;2023-04-24T07:14:24;16.00;;;5.75;;
70899;SDS011;67902;52.154;5.430;2023-04-24T07:16:51;16.17;;;6.82;;
70899;SDS011;67902;52.154;5.430;2023-04-24T07:19:17;17.52;;;7.18;;
70899;SDS011;67902;52.154;5.430;2023-04-24T07:21:44;19.45;;;6.95;;
70899;SDS011;67902;52.154;5.430;2023-04-24T07:24:11;15.13;;;6.20;;
70899;SDS011;67902;52.154;5.430;2023-04-24T07:26:38;18.58;;;6.00;;
70899;SDS011;67902;52.154;5.430;2023-04-24T07:29:06;14.50;;;6.00;;
70899;SDS011;67902;52.154;5.430;2023-04-24T07:31:33;16.23;;;6.47;;
70899;SDS011;67902;52.154;5.430;2023-04-24T07:34:00;14.13;;;5.38;;
70899;SDS011;67902;52.154;5.430;2023-04-24T07:36:26;16.42;;;6.75;;
70899;SDS011;67902;52.154;5.430;2023-04-24T07:38:54;16.20;;;5.35;;
70899;SDS011;67902;52.154;5.430;2023-04-24T07:41:22;14.55;;;6.32;;
70899;SDS011;67902;52.154;5.430;2023-04-24T07:43:50;17.15;;;6.03;;
70899;SDS011;67902;52.154;5.430;2023-04-24T07:46:17;16.92;;;5.18;;
70899;SDS011;67902;52.154;5.430;2023-04-24T07:48:43;16.42;;;5.93;;
70899;SDS011;67902;52.154;5.430;2023-04-24T07:51:09;13.55;;;5.32;;
70899;SDS011;67902;52.154;5.430;2023-04-24T07:53:37;14.20;;;5.38;;
70899;SDS011;67902;52.154;5.430;2023-04-24T07:56:04;16.05;;;5.15;;
70899;SDS011;67902;52.154;5.430;2023-04-24T07:58:30;16.27;;;6.18;;
70899;SDS011;67902;52.154;5.430;2023-04-24T08:00:57;15.30;;;5.25;;
70899;SDS011;67902;52.154;5.430;2023-04-24T08:03:23;13.00;;;5.13;;
70899;SDS011;67902;52.154;5.430;2023-04-24T08:05:51;15.90;;;5.22;;
70899;SDS011;67902;52.154;5.430;2023-04-24T08:08:17;15.20;;;5.60;;
70899;SDS011;67902;52.154;5.430;2023-04-24T08:10:44;13.02;;;5.82;;
70899;SDS011;67902;52.154;5.430;2023-04-24T08:13:11;15.00;;;5.32;;
70899;SDS011;67902;52.154;5.430;2023-04-24T08:15:37;14.88;;;5.32;;
70899;SDS011;67902;52.154;5.430;2023-04-24T08:18:04;14.05;;;4.85;;
70899;SDS011;67902;52.154;5.430;2023-04-24T08:20:30;10.77;;;3.63;;
70899;SDS011;67902;52.154;5.430;2023-04-24T08:22:57;16.48;;;4.18;;
70899;SDS011;67902;52.154;5.430;2023-04-24T08:25:23;15.00;;;4.50;;
70899;SDS011;67902;52.154;5.430;2023-04-24T08:27:51;12.75;;;3.88;;
70899;SDS011;67902;52.154;5.430;2023-04-24T08:30:17;13.48;;;3.55;;
70899;SDS011;67902;52.154;5.430;2023-04-24T08:32:44;14.18;;;3.42;;
70899;SDS011;67902;52.154;5.430;2023-04-24T08:35:11;10.52;;;3.22;;
70899;SDS011;67902;52.154;5.430;2023-04-24T08:37:37;11.60;;;3.22;;
70899;SDS011;67902;52.154;5.430;2023-04-24T08:40:05;10.82;;;2.80;;
70899;SDS011;67902;52.154;5.430;2023-04-24T08:42:38;17.80;;;3.60;;
70899;SDS011;67902;52.154;5.430;2023-04-24T08:45:06;12.30;;;3.25;;
70899;SDS011;67902;52.154;5.430;2023-04-24T08:47:33;13.75;;;3.20;;
70899;SDS011;67902;52.154;5.430;2023-04-24T08:50:02;16.63;;;3.33;;
70899;SDS011;67902;52.154;5.430;2023-04-24T08:52:35;14.80;;;3.50;;
70899;SDS011;67902;52.154;5.430;2023-04-24T08:55:02;11.43;;;2.97;;
70899;SDS011;67902;52.154;5.430;2023-04-24T08:57:28;15.65;;;3.13;;
70899;SDS011;67902;52.154;5.430;2023-04-24T08:59:57;10.63;;;2.75;;
70899;SDS011;67902;52.154;5.430;2023-04-24T09:02:25;13.70;;;2.38;;
70899;SDS011;67902;52.154;5.430;2023-04-24T09:04:52;13.45;;;3.50;;
70899;SDS011;67902;52.154;5.430;2023-04-24T09:07:19;12.30;;;1.90;;
70899;SDS011;67902;52.154;5.430;2023-04-24T09:09:48;10.02;;;2.33;;
70899;SDS011;67902;52.154;5.430;2023-04-24T09:12:17;9.32;;;2.08;;
70899;SDS011;67902;52.154;5.430;2023-04-24T09:14:44;10.45;;;2.22;;
70899;SDS011;67902;52.154;5.430;2023-04-24T09:17:11;14.88;;;2.35;;
70899;SDS011;67902;52.154;5.430;2023-04-24T09:19:38;12.30;;;2.20;;
70899;SDS011;67902;52.154;5.430;2023-04-24T09:22:06;11.52;;;2.10;;
70899;SDS011;67902;52.154;5.430;2023-04-24T09:27:01;12.95;;;2.40;;
70899;SDS011;67902;52.154;5.430;2023-04-24T09:29:27;13.25;;;1.98;;
70899;SDS011;67902;52.154;5.430;2023-04-24T09:31:54;10.15;;;2.15;;
70899;SDS011;67902;52.154;5.430;2023-04-24T09:34:22;13.20;;;2.45;;
70899;SDS011;67902;52.154;5.430;2023-04-24T09:36:49;12.13;;;2.03;;
70899;SDS011;67902;52.154;5.430;2023-04-24T09:39:17;9.77;;;1.80;;
70899;SDS011;67902;52.154;5.430;2023-04-24T09:41:49;9.02;;;2.20;;
70899;SDS011;67902;52.154;5.430;2023-04-24T09:44:18;13.60;;;1.95;;
70899;SDS011;67902;52.154;5.430;2023-04-24T09:46:50;11.95;;;2.20;;
70899;SDS011;67902;52.154;5.430;2023-04-24T09:49:25;9.43;;;2.05;;
70899;SDS011;67902;52.154;5.430;2023-04-24T09:52:05;10.45;;;1.90;;
70899;SDS011;67902;52.154;5.430;2023-04-24T09:54:33;10.23;;;2.00;;
70899;SDS011;67902;52.154;5.430;2023-04-24T09:56:59;10.10;;;1.90;;
70899;SDS011;67902;52.154;5.430;2023-04-24T09:59:26;10.35;;;2.08;;
70899;SDS011;67902;52.154;5.430;2023-04-24T10:01:53;11.80;;;1.98;;
70899;SDS011;67902;52.154;5.430;2023-04-24T10:04:24;15.52;;;2.40;;
70899;SDS011;67902;52.154;5.430;2023-04-24T10:06:52;9.52;;;2.03;;
70899;SDS011;67902;52.154;5.430;2023-04-24T10:09:21;9.93;;;2.42;;
70899;SDS011;67902;52.154;5.430;2023-04-24T10:11:50;10.80;;;2.17;;
70899;SDS011;67902;52.154;5.430;2023-04-24T10:14:19;8.95;;;1.90;;
70899;SDS011;67902;52.154;5.430;2023-04-24T10:16:47;11.55;;;1.80;;
70899;SDS011;67902;52.154;5.430;2023-04-24T10:19:14;7.07;;;1.70;;
70899;SDS011;67902;52.154;5.430;2023-04-24T10:21:42;12.00;;;1.95;;
70899;SDS011;67902;52.154;5.430;2023-04-24T10:24:13;10.00;;;1.85;;
70899;SDS011;67902;52.154;5.430;2023-04-24T10:26:44;5.78;;;1.65;;
70899;SDS011;67902;52.154;5.430;2023-04-24T10:29:12;9.07;;;1.88;;
70899;SDS011;67902;52.154;5.430;2023-04-24T10:31:41;7.35;;;1.30;;
70899;SDS011;67902;52.154;5.430;2023-04-24T10:36:36;3.80;;;1.40;;
70899;SDS011;67902;52.154;5.430;2023-04-24T10:39:07;7.00;;;1.20;;
70899;SDS011;67902;52.154;5.430;2023-04-24T10:41:37;5.35;;;1.33;;
70899;SDS011;67902;52.154;5.430;2023-04-24T10:44:08;5.68;;;1.20;;
70899;SDS011;67902;52.154;5.430;2023-04-24T10:46:38;5.13;;;0.88;;
70899;SDS011;67902;52.154;5.430;2023-04-24T10:49:11;4.68;;;1.23;;
70899;SDS011;67902;52.154;5.430;2023-04-24T10:51:48;4.47;;;1.13;;
70899;SDS011;67902;52.154;5.430;2023-04-24T10:56:52;5.72;;;1.05;;
70899;SDS011;67902;52.154;5.430;2023-04-24T10:59:28;5.32;;;1.00;;
70899;SDS011;67902;52.154;5.430;2023-04-24T11:02:01;5.53;;;1.08;;
70899;SDS011;67902;52.154;5.430;2023-04-24T11:04:31;4.75;;;1.00;;
70899;SDS011;67902;52.154;5.430;2023-04-24T11:06:58;4.07;;;1.10;;
70899;SDS011;67902;52.154;5.430;2023-04-24T11:09:30;4.85;;;1.23;;
70899;SDS011;67902;52.154;5.430;2023-04-24T11:12:04;5.75;;;1.20;;
70899;SDS011;67902;52.154;5.430;2023-04-24T11:17:38;7.53;;;1.30;;
70899;SDS011;67902;52.154;5.430;2023-04-24T11:20:06;5.03;;;1.10;;
70899;SDS011;67902;52.154;5.430;2023-04-24T11:22:53;5.20;;;1.27;;
70899;SDS011;67902;52.154;5.430;2023-04-24T11:25:21;4.63;;;1.20;;
70899;SDS011;67902;52.154;5.430;2023-04-24T11:30:19;4.55;;;0.80;;
70899;SDS011;67902;52.154;5.430;2023-04-24T11:32:52;5.20;;;1.15;;
70899;SDS011;67902;52.154;5.430;2023-04-24T11:35:20;3.63;;;1.00;;
70899;SDS011;67902;52.154;5.430;2023-04-24T11:37:52;3.35;;;0.85;;
70899;SDS011;67902;52.154;5.430;2023-04-24T11:40:39;5.78;;;1.23;;
70899;SDS011;67902;52.154;5.430;2023-04-24T11:43:06;5.93;;;0.90;;
70899;SDS011;67902;52.154;5.430;2023-04-24T11:45:33;4.10;;;1.08;;
70899;SDS011;67902;52.154;5.430;2023-04-24T11:48:00;3.47;;;0.82;;
70899;SDS011;67902;52.154;5.430;2023-04-24T11:50:26;2.45;;;0.65;;
70899;SDS011;67902;52.154;5.430;2023-04-24T11:52:54;2.28;;;0.65;;
70899;SDS011;67902;52.154;5.430;2023-04-24T11:57:50;5.10;;;0.80;;
70899;SDS011;67902;52.154;5.430;2023-04-24T12:00:20;4.50;;;0.50;;
70899;SDS011;67902;52.154;5.430;2023-04-24T12:02:48;5.50;;;0.90;;
70899;SDS011;67902;52.154;5.430;2023-04-24T12:05:26;4.25;;;0.70;;
70899;SDS011;67902;52.154;5.430;2023-04-24T12:07:53;5.28;;;0.82;;
70899;SDS011;67902;52.154;5.430;2023-04-24T12:10:24;3.20;;;0.70;;
70899;SDS011;67902;52.154;5.430;2023-04-24T12:12:51;3.30;;;0.63;;
70899;SDS011;67902;52.154;5.430;2023-04-24T12:15:19;3.08;;;0.82;;
70899;SDS011;67902;52.154;5.430;2023-04-24T12:17:46;7.03;;;0.82;;
70899;SDS011;67902;52.154;5.430;2023-04-24T12:20:14;3.97;;;0.88;;
70899;SDS011;67902;52.154;5.430;2023-04-24T12:22:48;3.85;;;0.82;;
70899;SDS011;67902;52.154;5.430;2023-04-24T12:25:17;5.88;;;1.13;;
70899;SDS011;67902;52.154;5.430;2023-04-24T12:27:45;8.30;;;1.10;;
70899;SDS011;67902;52.154;5.430;2023-04-24T12:30:14;4.25;;;0.90;;
70899;SDS011;67902;52.154;5.430;2023-04-24T12:32:45;6.80;;;1.27;;
70899;SDS011;67902;52.154;5.430;2023-04-24T12:35:14;4.75;;;1.10;;
70899;SDS011;67902;52.154;5.430;2023-04-24T12:37:46;5.30;;;1.00;;
70899;SDS011;67902;52.154;5.430;2023-04-24T12:40:13;3.60;;;1.17;;
70899;SDS011;67902;52.154;5.430;2023-04-24T12:42:42;3.45;;;1.00;;
70899;SDS011;67902;52.154;5.430;2023-04-24T12:45:09;8.52;;;1.55;;
70899;SDS011;67902;52.154;5.430;2023-04-24T12:47:38;6.25;;;1.17;;
70899;SDS011;67902;52.154;5.430;2023-04-24T12:50:06;5.05;;;1.10;;
70899;SDS011;67902;52.154;5.430;2023-04-24T12:52:34;10.07;;;1.42;;
70899;SDS011;67902;52.154;5.430;2023-04-24T12:55:01;7.68;;;1.35;;
70899;SDS011;67902;52.154;5.430;2023-04-24T12:57:28;6.38;;;1.42;;
70899;SDS011;67902;52.154;5.430;2023-04-24T12:59:56;10.98;;;2.30;;
70899;SDS011;67902;52.154;5.430;2023-04-24T13:02:24;11.38;;;1.75;;
70899;SDS011;67902;52.154;5.430;2023-04-24T13:04:52;10.30;;;2.13;;
70899;SDS011;67902;52.154;5.430;2023-04-24T13:07:19;10.95;;;1.73;;
70899;SDS011;67902;52.154;5.430;2023-04-24T13:09:47;13.48;;;1.80;;
70899;SDS011;67902;52.154;5.430;2023-04-24T13:12:14;7.45;;;1.42;;
70899;SDS011;67902;52.154;5.430;2023-04-24T13:14:41;10.25;;;1.77;;
70899;SDS011;67902;52.154;5.430;2023-04-24T13:17:07;11.20;;;2.17;;
70899;SDS011;67902;52.154;5.430;2023-04-24T13:19:38;12.73;;;2.10;;
70899;SDS011;67902;52.154;5.430;2023-04-24T13:22:06;10.27;;;1.77;;
70899;SDS011;67902;52.154;5.430;2023-04-24T13:24:34;13.73;;;2.05;;
70899;SDS011;67902;52.154;5.430;2023-04-24T13:27:03;13.27;;;2.10;;
70899;SDS011;67902;52.154;5.430;2023-04-24T13:29:30;11.50;;;1.95;;
70899;SDS011;67902;52.154;5.430;2023-04-24T13:31:56;12.15;;;1.65;;
70899;SDS011;67902;52.154;5.430;2023-04-24T13:34:23;12.57;;;2.35;;
70899;SDS011;67902;52.154;5.430;2023-04-24T13:36:54;10.98;;;2.08;;
70899;SDS011;67902;52.154;5.430;2023-04-24T13:39:23;12.13;;;1.92;;
70899;SDS011;67902;52.154;5.430;2023-04-24T13:41:51;10.00;;;2.13;;
70899;SDS011;67902;52.154;5.430;2023-04-24T13:44:18;13.07;;;1.92;;
70899;SDS011;67902;52.154;5.430;2023-04-24T13:46:48;10.18;;;1.95;;
70899;SDS011;67902;52.154;5.430;2023-04-24T13:49:17;9.48;;;1.60;;
70899;SDS011;67902;52.154;5.430;2023-04-24T13:51:44;10.13;;;2.00;;
70899;SDS011;67902;52.154;5.430;2023-04-24T13:54:11;10.30;;;2.13;;
70899;SDS011;67902;52.154;5.430;2023-04-24T13:56:38;9.07;;;1.90;;
70899;SDS011;67902;52.154;5.430;2023-04-24T14:01:32;8.32;;;2.08;;
70899;SDS011;67902;52.154;5.430;2023-04-24T14:03:59;12.02;;;2.30;;
70899;SDS011;67902;52.154;5.430;2023-04-24T14:06:26;12.77;;;2.17;;
70899;SDS011;67902;52.154;5.430;2023-04-24T14:08:52;8.88;;;2.10;;
70899;SDS011;67902;52.154;5.430;2023-04-24T14:11:19;11.80;;;2.40;;
70899;SDS011;67902;52.154;5.430;2023-04-24T14:13:46;9.38;;;2.05;;
70899;SDS011;67902;52.154;5.430;2023-04-24T14:16:12;11.38;;;1.95;;
70899;SDS011;67902;52.154;5.430;2023-04-24T14:18:39;12.55;;;2.25;;
70899;SDS011;67902;52.154;5.430;2023-04-24T14:21:05;12.30;;;2.47;;
70899;SDS011;67902;52.154;5.430;2023-04-24T14:23:32;11.45;;;2.00;;
70899;SDS011;67902;52.154;5.430;2023-04-24T14:25:59;10.93;;;2.03;;
70899;SDS011;67902;52.154;5.430;2023-04-24T14:28:25;11.43;;;2.00;;
70899;SDS011;67902;52.154;5.430;2023-04-24T14:30:52;11.05;;;2.20;;
70899;SDS011;67902;52.154;5.430;2023-04-24T14:33:19;11.15;;;2.42;;
70899;SDS011;67902;52.154;5.430;2023-04-24T14:35:45;13.13;;;2.20;;
70899;SDS011;67902;52.154;5.430;2023-04-24T14:38:12;12.88;;;2.60;;
70899;SDS011;67902;52.154;5.430;2023-04-24T14:40:39;12.57;;;2.67;;
70899;SDS011;67902;52.154;5.430;2023-04-24T14:43:09;10.23;;;2.35;;
70899;SDS011;67902;52.154;5.430;2023-04-24T14:45:36;10.82;;;2.42;;
70899;SDS011;67902;52.154;5.430;2023-04-24T14:48:04;11.13;;;2.53;;
70899;SDS011;67902;52.154;5.430;2023-04-24T14:50:30;24.60;;;2.85;;
70899;SDS011;67902;52.154;5.430;2023-04-24T14:52:57;9.70;;;2.20;;
70899;SDS011;67902;52.154;5.430;2023-04-24T14:55:24;9.68;;;2.60;;
70899;SDS011;67902;52.154;5.430;2023-04-24T14:57:52;12.25;;;2.30;;
70899;SDS011;67902;52.154;5.430;2023-04-24T15:00:19;6.95;;;1.98;;
70899;SDS011;67902;52.154;5.430;2023-04-24T15:02:46;15.05;;;2.83;;
70899;SDS011;67902;52.154;5.430;2023-04-24T15:05:13;12.38;;;2.80;;
70899;SDS011;67902;52.154;5.430;2023-04-24T15:07:40;9.93;;;2.58;;